Time;durP1;ratioP1;P1;durP2;ratioP2;P2;SDS_P1;SDS_P2;PMS_P1;PMS_P2;Temp;Humidity;BMP_temperature;BMP_pressure;BME280_temperature;BME280_humidity;BME280_pressure;Samples;Min_cycle;Max_cycle;Signal;HPM_P1;HPM_P2
2021/12/13 00:00:10;;;;;;;;;;;3.8;71.7;;;;;;;;;
2021/12/13 00:05:10;;;;;;;;;;;3.8;71.3;;;;;;;;;
2021/12/13 00:10:11;;;;;;;;;;;3.8;71.4;;;;;;;;;
2021/12/13 00:15:13;;;;;;;;;;;3.7;72.1;;;;;;;;;
2021/12/13 00:20:12;;;;;;;;;;;3.8;72.1;;;;;;;;;
2021/12/13 00:25:09;;;;;;;;;;;3.7;72.7;;;;;;;;;
2021/12/13 00:30:09;;;;;;;;;;;3.7;73.6;;;;;;;;;
2021/12/13 00:35:09;;;;;;;;;;;3.7;74.4;;;;;;;;;
2021/12/13 00:40:10;;;;;;;;;;;3.7;74.2;;;;;;;;;
2021/12/13 00:45:08;;;;;;;;;;;3.7;75.1;;;;;;;;;
2021/12/13 00:50:10;;;;;;;;;;;3.7;75.9;;;;;;;;;
2021/12/13 00:55:09;;;;;;;;;;;3.8;76.1;;;;;;;;;
2021/12/13 01:00:09;;;;;;;;;;;3.8;76.2;;;;;;;;;
2021/12/13 01:05:08;;;;;;;;;;;3.8;76.8;;;;;;;;;
2021/12/13 01:10:47;;;;;;;;;;;3.9;76.5;;;;;;;;;
2021/12/13 01:15:11;;;;;;;;;;;3.8;77.6;;;;;;;;;
2021/12/13 01:20:10;;;;;;;;;;;3.7;78.2;;;;;;;;;
2021/12/13 01:25:18;;;;;;;;;;;3.7;78.5;;;;;;;;;
2021/12/13 01:30:09;;;;;;;;;;;3.8;78.8;;;;;;;;;
2021/12/13 01:35:09;;;;;;;;;;;3.7;78.7;;;;;;;;;
2021/12/13 01:40:10;;;;;;;;;;;3.7;79.5;;;;;;;;;
2021/12/13 01:45:11;;;;;;;;;;;3.7;79.6;;;;;;;;;
2021/12/13 01:50:09;;;;;;;;;;;3.7;80.2;;;;;;;;;
2021/12/13 01:55:10;;;;;;;;;;;3.7;80.4;;;;;;;;;
2021/12/13 02:00:17;;;;;;;;;;;3.7;81.3;;;;;;;;;
2021/12/13 02:05:09;;;;;;;;;;;3.7;81.2;;;;;;;;;
2021/12/13 02:10:09;;;;;;;;;;;3.6;82.2;;;;;;;;;
2021/12/13 02:20:12;;;;;;;;;;;3.6;82.2;;;;;;;;;
2021/12/13 02:25:13;;;;;;;;;;;3.5;82.6;;;;;;;;;
2021/12/13 02:30:10;;;;;;;;;;;3.5;82.7;;;;;;;;;
2021/12/13 02:35:08;;;;;;;;;;;3.6;82.7;;;;;;;;;
2021/12/13 02:40:08;;;;;;;;;;;3.5;82.6;;;;;;;;;
2021/12/13 02:45:13;;;;;;;;;;;3.5;83.8;;;;;;;;;
2021/12/13 02:50:09;;;;;;;;;;;3.5;83.8;;;;;;;;;
2021/12/13 02:55:09;;;;;;;;;;;3.5;84.0;;;;;;;;;
2021/12/13 03:00:11;;;;;;;;;;;3.4;83.7;;;;;;;;;
2021/12/13 03:05:09;;;;;;;;;;;3.5;84.2;;;;;;;;;
2021/12/13 03:10:10;;;;;;;;;;;3.5;83.9;;;;;;;;;
2021/12/13 03:15:09;;;;;;;;;;;3.6;83.3;;;;;;;;;
2021/12/13 03:20:15;;;;;;;;;;;3.5;84.0;;;;;;;;;
2021/12/13 03:25:11;;;;;;;;;;;3.6;83.8;;;;;;;;;
2021/12/13 03:30:08;;;;;;;;;;;3.6;83.8;;;;;;;;;
2021/12/13 03:35:11;;;;;;;;;;;3.6;84.3;;;;;;;;;
2021/12/13 03:40:10;;;;;;;;;;;3.6;84.8;;;;;;;;;
2021/12/13 03:45:11;;;;;;;;;;;3.6;84.9;;;;;;;;;
2021/12/13 03:50:09;;;;;;;;;;;3.5;85.4;;;;;;;;;
2021/12/13 03:55:08;;;;;;;;;;;3.5;85.5;;;;;;;;;
2021/12/13 04:00:08;;;;;;;;;;;3.6;85.7;;;;;;;;;
2021/12/13 04:10:10;;;;;;;;;;;3.7;85.6;;;;;;;;;
2021/12/13 04:15:13;;;;;;;;;;;3.6;86.0;;;;;;;;;
2021/12/13 04:20:09;;;;;;;;;;;3.7;86.8;;;;;;;;;
2021/12/13 04:25:08;;;;;;;;;;;3.7;86.8;;;;;;;;;
2021/12/13 04:30:13;;;;;;;;;;;3.7;86.6;;;;;;;;;
2021/12/13 04:35:09;;;;;;;;;;;3.7;86.9;;;;;;;;;
2021/12/13 04:45:09;;;;;;;;;;;3.7;87.2;;;;;;;;;
2021/12/13 04:50:10;;;;;;;;;;;3.8;86.9;;;;;;;;;
2021/12/13 04:55:10;;;;;;;;;;;3.8;87.2;;;;;;;;;
2021/12/13 05:00:11;;;;;;;;;;;3.9;87.2;;;;;;;;;
2021/12/13 05:05:07;;;;;;;;;;;3.8;87.2;;;;;;;;;
2021/12/13 05:10:08;;;;;;;;;;;3.8;87.7;;;;;;;;;
2021/12/13 05:15:09;;;;;;;;;;;3.8;88.2;;;;;;;;;
2021/12/13 05:20:52;;;;;;;;;;;3.9;88.0;;;;;;;;;
2021/12/13 05:25:07;;;;;;;;;;;3.9;87.9;;;;;;;;;
2021/12/13 05:30:11;;;;;;;;;;;4.0;88.2;;;;;;;;;
2021/12/13 05:35:13;;;;;;;;;;;3.9;88.5;;;;;;;;;
2021/12/13 05:40:09;;;;;;;;;;;4.0;88.6;;;;;;;;;
2021/12/13 05:45:09;;;;;;;;;;;4.0;88.7;;;;;;;;;
2021/12/13 05:50:08;;;;;;;;;;;3.9;89.3;;;;;;;;;
2021/12/13 05:55:10;;;;;;;;;;;4.0;89.4;;;;;;;;;
2021/12/13 06:00:11;;;;;;;;;;;4.0;89.6;;;;;;;;;
2021/12/13 06:05:09;;;;;;;;;;;4.0;90.2;;;;;;;;;
2021/12/13 06:10:08;;;;;;;;;;;4.0;90.3;;;;;;;;;
2021/12/13 06:15:27;;;;;;;;;;;4.1;90.4;;;;;;;;;
2021/12/13 06:20:09;;;;;;;;;;;4.1;89.3;;;;;;;;;
2021/12/13 06:25:08;;;;;;;;;;;4.1;89.8;;;;;;;;;
2021/12/13 06:30:09;;;;;;;;;;;4.1;90.1;;;;;;;;;
2021/12/13 06:35:32;;;;;;;;;;;4.1;89.7;;;;;;;;;
2021/12/13 06:40:12;;;;;;;;;;;4.2;89.9;;;;;;;;;
2021/12/13 06:45:17;;;;;;;;;;;4.3;89.7;;;;;;;;;
2021/12/13 06:50:07;;;;;;;;;;;4.3;89.2;;;;;;;;;
2021/12/13 06:55:11;;;;;;;;;;;4.3;89.1;;;;;;;;;
2021/12/13 07:00:09;;;;;;;;;;;4.3;88.9;;;;;;;;;
2021/12/13 07:05:08;;;;;;;;;;;4.2;88.8;;;;;;;;;
2021/12/13 07:10:13;;;;;;;;;;;4.3;88.5;;;;;;;;;
2021/12/13 07:15:20;;;;;;;;;;;4.3;88.9;;;;;;;;;
2021/12/13 07:20:12;;;;;;;;;;;4.3;89.2;;;;;;;;;
2021/12/13 07:25:14;;;;;;;;;;;4.2;89.8;;;;;;;;;
2021/12/13 07:30:09;;;;;;;;;;;4.3;90.1;;;;;;;;;
2021/12/13 07:35:08;;;;;;;;;;;4.3;90.0;;;;;;;;;
2021/12/13 07:40:32;;;;;;;;;;;4.3;90.1;;;;;;;;;
2021/12/13 07:45:21;;;;;;;;;;;4.3;90.0;;;;;;;;;
2021/12/13 07:50:08;;;;;;;;;;;4.3;90.3;;;;;;;;;
2021/12/13 07:55:12;;;;;;;;;;;4.3;90.7;;;;;;;;;
2021/12/13 08:00:09;;;;;;;;;;;4.4;90.5;;;;;;;;;
2021/12/13 08:05:11;;;;;;;;;;;4.3;90.2;;;;;;;;;
2021/12/13 08:10:09;;;;;;;;;;;4.4;90.4;;;;;;;;;
2021/12/13 08:15:11;;;;;;;;;;;4.4;90.2;;;;;;;;;
2021/12/13 08:20:10;;;;;;;;;;;4.4;90.8;;;;;;;;;
2021/12/13 08:25:08;;;;;;;;;;;4.5;90.8;;;;;;;;;
2021/12/13 08:30:11;;;;;;;;;;;4.5;90.8;;;;;;;;;
2021/12/13 08:35:07;;;;;;;;;;;4.6;90.8;;;;;;;;;
2021/12/13 08:40:09;;;;;;;;;;;4.6;90.5;;;;;;;;;
2021/12/13 08:45:09;;;;;;;;;;;4.7;90.3;;;;;;;;;
2021/12/13 08:50:10;;;;;;;;;;;4.7;90.7;;;;;;;;;
2021/12/13 08:55:16;;;;;;;;;;;4.7;90.8;;;;;;;;;
2021/12/13 09:00:16;;;;;;;;;;;4.7;90.1;;;;;;;;;
2021/12/13 09:05:10;;;;;;;;;;;4.8;90.1;;;;;;;;;
2021/12/13 09:10:07;;;;;;;;;;;4.8;89.5;;;;;;;;;
2021/12/13 09:15:17;;;;;;;;;;;4.9;90.2;;;;;;;;;
2021/12/13 09:20:12;;;;;;;;;;;4.8;89.9;;;;;;;;;
2021/12/13 09:25:09;;;;;;;;;;;4.9;89.5;;;;;;;;;
2021/12/13 09:30:15;;;;;;;;;;;5.0;89.2;;;;;;;;;
2021/12/13 09:35:17;;;;;;;;;;;4.9;89.0;;;;;;;;;
2021/12/13 09:40:08;;;;;;;;;;;5.0;89.3;;;;;;;;;
2021/12/13 09:45:09;;;;;;;;;;;5.1;89.0;;;;;;;;;
2021/12/13 09:50:09;;;;;;;;;;;5.2;89.0;;;;;;;;;
2021/12/13 09:55:09;;;;;;;;;;;5.1;88.4;;;;;;;;;
2021/12/13 10:00:09;;;;;;;;;;;5.2;88.7;;;;;;;;;
2021/12/13 10:05:08;;;;;;;;;;;5.3;89.2;;;;;;;;;
2021/12/13 10:10:10;;;;;;;;;;;5.4;88.5;;;;;;;;;
2021/12/13 10:15:08;;;;;;;;;;;5.5;88.0;;;;;;;;;
2021/12/13 10:20:10;;;;;;;;;;;5.5;87.4;;;;;;;;;
2021/12/13 10:25:09;;;;;;;;;;;5.5;87.6;;;;;;;;;
2021/12/13 10:30:11;;;;;;;;;;;5.6;88.0;;;;;;;;;
2021/12/13 10:35:09;;;;;;;;;;;5.5;87.4;;;;;;;;;
2021/12/13 10:40:09;;;;;;;;;;;5.6;87.4;;;;;;;;;
2021/12/13 10:45:09;;;;;;;;;;;5.6;87.7;;;;;;;;;
2021/12/13 10:50:08;;;;;;;;;;;5.6;87.8;;;;;;;;;
2021/12/13 10:55:10;;;;;;;;;;;5.6;87.4;;;;;;;;;
2021/12/13 11:00:08;;;;;;;;;;;5.7;87.5;;;;;;;;;
2021/12/13 11:05:09;;;;;;;;;;;5.7;88.1;;;;;;;;;
2021/12/13 11:10:11;;;;;;;;;;;5.7;87.9;;;;;;;;;
2021/12/13 11:15:09;;;;;;;;;;;5.7;87.6;;;;;;;;;
2021/12/13 11:20:09;;;;;;;;;;;5.8;87.3;;;;;;;;;
2021/12/13 11:25:09;;;;;;;;;;;5.8;88.1;;;;;;;;;
2021/12/13 11:30:11;;;;;;;;;;;5.7;88.4;;;;;;;;;
2021/12/13 11:35:36;;;;;;;;;;;5.8;88.0;;;;;;;;;
2021/12/13 11:40:18;;;;;;;;;;;5.8;87.6;;;;;;;;;
2021/12/13 11:45:19;;;;;;;;;;;5.9;87.2;;;;;;;;;
2021/12/13 11:50:13;;;;;;;;;;;5.9;87.6;;;;;;;;;
2021/12/13 11:55:19;;;;;;;;;;;5.9;87.0;;;;;;;;;
2021/12/13 12:00:14;;;;;;;;;;;6.0;86.7;;;;;;;;;
2021/12/13 12:05:23;;;;;;;;;;;6.1;86.8;;;;;;;;;
2021/12/13 12:10:12;;;;;;;;;;;6.0;87.1;;;;;;;;;
2021/12/13 12:15:09;;;;;;;;;;;6.0;87.2;;;;;;;;;
2021/12/13 12:20:08;;;;;;;;;;;6.0;86.7;;;;;;;;;
2021/12/13 12:25:07;;;;;;;;;;;6.0;86.3;;;;;;;;;
2021/12/13 12:30:10;;;;;;;;;;;6.0;86.6;;;;;;;;;
2021/12/13 12:35:11;;;;;;;;;;;6.0;86.0;;;;;;;;;
2021/12/13 12:40:25;;;;;;;;;;;5.9;85.9;;;;;;;;;
2021/12/13 12:45:10;;;;;;;;;;;5.9;86.4;;;;;;;;;
2021/12/13 12:50:11;;;;;;;;;;;5.9;86.9;;;;;;;;;
2021/12/13 12:55:11;;;;;;;;;;;5.9;87.2;;;;;;;;;
2021/12/13 13:00:07;;;;;;;;;;;5.9;87.8;;;;;;;;;
2021/12/13 13:05:08;;;;;;;;;;;5.8;88.0;;;;;;;;;
2021/12/13 13:10:19;;;;;;;;;;;5.9;88.3;;;;;;;;;
2021/12/13 13:15:10;;;;;;;;;;;5.9;87.9;;;;;;;;;
2021/12/13 13:20:09;;;;;;;;;;;5.9;87.9;;;;;;;;;
2021/12/13 13:25:08;;;;;;;;;;;5.9;88.4;;;;;;;;;
2021/12/13 13:30:10;;;;;;;;;;;5.9;87.6;;;;;;;;;
2021/12/13 13:35:09;;;;;;;;;;;5.9;87.2;;;;;;;;;
2021/12/13 13:40:09;;;;;;;;;;;5.9;86.6;;;;;;;;;
2021/12/13 13:45:09;;;;;;;;;;;5.9;87.5;;;;;;;;;
2021/12/13 13:50:17;;;;;;;;;;;5.9;87.6;;;;;;;;;
2021/12/13 13:55:18;;;;;;;;;;;5.9;88.1;;;;;;;;;
2021/12/13 14:00:07;;;;;;;;;;;5.9;88.2;;;;;;;;;
2021/12/13 14:05:09;;;;;;;;;;;5.9;88.2;;;;;;;;;
2021/12/13 14:10:13;;;;;;;;;;;5.8;87.9;;;;;;;;;
2021/12/13 14:15:09;;;;;;;;;;;5.8;88.1;;;;;;;;;
2021/12/13 14:20:15;;;;;;;;;;;5.8;88.0;;;;;;;;;
2021/12/13 14:25:08;;;;;;;;;;;5.8;87.6;;;;;;;;;
2021/12/13 14:30:10;;;;;;;;;;;5.8;87.2;;;;;;;;;
2021/12/13 14:35:11;;;;;;;;;;;5.7;87.1;;;;;;;;;
2021/12/13 14:40:09;;;;;;;;;;;5.7;87.2;;;;;;;;;
2021/12/13 14:45:09;;;;;;;;;;;5.7;86.9;;;;;;;;;
2021/12/13 14:50:12;;;;;;;;;;;5.7;87.0;;;;;;;;;
2021/12/13 14:55:09;;;;;;;;;;;5.7;87.5;;;;;;;;;
2021/12/13 15:00:08;;;;;;;;;;;5.6;87.9;;;;;;;;;
2021/12/13 15:05:08;;;;;;;;;;;5.4;88.4;;;;;;;;;
2021/12/13 15:10:10;;;;;;;;;;;5.7;88.1;;;;;;;;;
2021/12/13 15:15:12;;;;;;;;;;;5.6;88.6;;;;;;;;;
2021/12/13 15:20:11;;;;;;;;;;;5.6;87.5;;;;;;;;;
2021/12/13 15:25:08;;;;;;;;;;;5.7;87.7;;;;;;;;;
2021/12/13 15:30:09;;;;;;;;;;;5.6;88.1;;;;;;;;;
2021/12/13 15:35:09;;;;;;;;;;;5.6;88.8;;;;;;;;;
2021/12/13 15:40:10;;;;;;;;;;;5.5;89.0;;;;;;;;;
2021/12/13 15:45:09;;;;;;;;;;;5.5;89.5;;;;;;;;;
2021/12/13 15:50:21;;;;;;;;;;;5.6;89.3;;;;;;;;;
2021/12/13 15:55:07;;;;;;;;;;;5.6;89.1;;;;;;;;;
2021/12/13 16:00:09;;;;;;;;;;;5.7;89.5;;;;;;;;;
2021/12/13 16:05:10;;;;;;;;;;;5.7;89.5;;;;;;;;;
2021/12/13 16:10:09;;;;;;;;;;;5.7;89.2;;;;;;;;;
2021/12/13 16:15:09;;;;;;;;;;;5.7;88.9;;;;;;;;;
2021/12/13 16:20:15;;;;;;;;;;;5.7;89.9;;;;;;;;;
2021/12/13 16:25:10;;;;;;;;;;;5.7;89.9;;;;;;;;;
2021/12/13 16:30:07;;;;;;;;;;;5.6;89.5;;;;;;;;;
2021/12/13 16:35:09;;;;;;;;;;;5.7;89.6;;;;;;;;;
2021/12/13 16:40:07;;;;;;;;;;;5.7;90.1;;;;;;;;;
2021/12/13 16:45:07;;;;;;;;;;;5.7;90.2;;;;;;;;;
2021/12/13 16:50:08;;;;;;;;;;;5.7;89.3;;;;;;;;;
2021/12/13 16:55:09;;;;;;;;;;;5.7;89.5;;;;;;;;;
2021/12/13 17:00:09;;;;;;;;;;;5.7;89.3;;;;;;;;;
2021/12/13 17:05:10;;;;;;;;;;;5.7;89.8;;;;;;;;;
2021/12/13 17:10:09;;;;;;;;;;;5.7;89.7;;;;;;;;;
2021/12/13 17:15:09;;;;;;;;;;;5.7;89.8;;;;;;;;;
2021/12/13 17:20:19;;;;;;;;;;;5.7;90.3;;;;;;;;;
2021/12/13 17:25:07;;;;;;;;;;;5.7;90.0;;;;;;;;;
2021/12/13 17:30:09;;;;;;;;;;;5.7;90.3;;;;;;;;;
2021/12/13 17:35:08;;;;;;;;;;;5.6;90.1;;;;;;;;;
2021/12/13 17:45:13;;;;;;;;;;;5.6;90.4;;;;;;;;;
2021/12/13 17:50:13;;;;;;;;;;;5.6;90.0;;;;;;;;;
2021/12/13 17:55:10;;;;;;;;;;;5.6;90.3;;;;;;;;;
2021/12/13 18:00:26;;;;;;;;;;;5.5;90.6;;;;;;;;;
2021/12/13 18:05:52;;;;;;;;;;;5.6;90.5;;;;;;;;;
2021/12/13 18:10:26;;;;;;;;;;;5.6;90.4;;;;;;;;;
2021/12/13 18:15:14;;;;;;;;;;;5.6;90.0;;;;;;;;;
2021/12/13 18:20:11;;;;;;;;;;;5.6;89.8;;;;;;;;;
2021/12/13 18:25:31;;;;;;;;;;;5.6;90.0;;;;;;;;;
2021/12/13 18:35:21;;;;;;;;;;;5.6;90.4;;;;;;;;;
2021/12/13 18:40:17;;;;;;;;;;;5.5;89.6;;;;;;;;;
2021/12/13 18:45:09;;;;;;;;;;;5.6;90.4;;;;;;;;;
2021/12/13 18:50:09;;;;;;;;;;;5.5;89.6;;;;;;;;;
2021/12/13 18:55:10;;;;;;;;;;;5.4;89.3;;;;;;;;;
2021/12/13 19:00:11;;;;;;;;;;;5.4;89.4;;;;;;;;;
2021/12/13 19:05:09;;;;;;;;;;;5.3;89.1;;;;;;;;;
2021/12/13 19:10:07;;;;;;;;;;;5.3;88.6;;;;;;;;;
2021/12/13 19:15:09;;;;;;;;;;;5.3;88.0;;;;;;;;;
2021/12/13 19:20:20;;;;;;;;;;;5.2;89.4;;;;;;;;;
2021/12/13 19:25:08;;;;;;;;;;;5.2;89.3;;;;;;;;;
2021/12/13 19:30:10;;;;;;;;;;;5.2;89.4;;;;;;;;;
2021/12/13 19:35:10;;;;;;;;;;;5.2;89.0;;;;;;;;;
2021/12/13 19:40:16;;;;;;;;;;;5.2;88.5;;;;;;;;;
2021/12/13 19:50:09;;;;;;;;;;;5.2;88.0;;;;;;;;;
2021/12/13 19:55:10;;;;;;;;;;;5.2;87.8;;;;;;;;;
2021/12/13 20:00:14;;;;;;;;;;;5.2;87.4;;;;;;;;;
2021/12/13 20:05:10;;;;;;;;;;;5.1;87.5;;;;;;;;;
2021/12/13 20:10:11;;;;;;;;;;;5.1;87.7;;;;;;;;;
2021/12/13 20:15:13;;;;;;;;;;;5.1;87.8;;;;;;;;;
2021/12/13 20:20:13;;;;;;;;;;;5.2;87.4;;;;;;;;;
2021/12/13 20:25:09;;;;;;;;;;;5.2;86.9;;;;;;;;;
2021/12/13 20:30:09;;;;;;;;;;;5.2;86.8;;;;;;;;;
2021/12/13 20:35:09;;;;;;;;;;;5.1;86.4;;;;;;;;;
2021/12/13 20:40:14;;;;;;;;;;;5.0;86.4;;;;;;;;;
2021/12/13 20:45:11;;;;;;;;;;;4.8;87.4;;;;;;;;;
2021/12/13 20:50:12;;;;;;;;;;;4.8;86.5;;;;;;;;;
2021/12/13 20:55:09;;;;;;;;;;;4.9;86.5;;;;;;;;;
2021/12/13 21:00:10;;;;;;;;;;;4.9;86.2;;;;;;;;;
2021/12/13 21:05:09;;;;;;;;;;;4.8;85.9;;;;;;;;;
2021/12/13 21:10:10;;;;;;;;;;;4.9;85.9;;;;;;;;;
2021/12/13 21:15:10;;;;;;;;;;;4.8;87.5;;;;;;;;;
2021/12/13 21:20:09;;;;;;;;;;;4.9;85.4;;;;;;;;;
2021/12/13 21:25:09;;;;;;;;;;;4.9;85.1;;;;;;;;;
2021/12/13 21:30:11;;;;;;;;;;;4.9;84.3;;;;;;;;;
2021/12/13 21:35:16;;;;;;;;;;;4.8;84.5;;;;;;;;;
2021/12/13 21:40:09;;;;;;;;;;;4.8;84.8;;;;;;;;;
2021/12/13 21:45:16;;;;;;;;;;;4.9;84.9;;;;;;;;;
2021/12/13 21:50:11;;;;;;;;;;;4.7;85.3;;;;;;;;;
2021/12/13 21:55:10;;;;;;;;;;;4.7;85.6;;;;;;;;;
2021/12/13 22:00:13;;;;;;;;;;;4.8;85.7;;;;;;;;;
2021/12/13 22:05:09;;;;;;;;;;;4.7;85.5;;;;;;;;;
2021/12/13 22:10:09;;;;;;;;;;;4.7;86.0;;;;;;;;;
2021/12/13 22:15:13;;;;;;;;;;;4.6;85.9;;;;;;;;;
2021/12/13 22:20:09;;;;;;;;;;;4.6;86.7;;;;;;;;;
2021/12/13 22:25:08;;;;;;;;;;;4.6;86.4;;;;;;;;;
2021/12/13 22:30:10;;;;;;;;;;;4.6;85.9;;;;;;;;;
2021/12/13 22:35:11;;;;;;;;;;;4.7;86.4;;;;;;;;;
2021/12/13 22:40:09;;;;;;;;;;;4.6;86.0;;;;;;;;;
2021/12/13 22:45:08;;;;;;;;;;;4.5;85.7;;;;;;;;;
2021/12/13 22:50:09;;;;;;;;;;;4.6;85.9;;;;;;;;;
2021/12/13 22:55:10;;;;;;;;;;;4.4;86.1;;;;;;;;;
2021/12/13 23:00:14;;;;;;;;;;;4.3;86.1;;;;;;;;;
2021/12/13 23:05:09;;;;;;;;;;;4.4;85.9;;;;;;;;;
2021/12/13 23:10:17;;;;;;;;;;;4.4;85.1;;;;;;;;;
2021/12/13 23:15:08;;;;;;;;;;;4.4;85.2;;;;;;;;;
2021/12/13 23:20:09;;;;;;;;;;;4.4;85.6;;;;;;;;;
2021/12/13 23:25:09;;;;;;;;;;;4.4;85.1;;;;;;;;;
2021/12/13 23:30:12;;;;;;;;;;;4.4;85.3;;;;;;;;;
2021/12/13 23:35:17;;;;;;;;;;;4.4;85.7;;;;;;;;;
2021/12/13 23:50:10;;;;;;;;;;;4.1;85.6;;;;;;;;;
2021/12/13 23:55:10;;;;;;;;;;;4.2;85.8;;;;;;;;;
